Time;durP1;ratioP1;P1;durP2;ratioP2;P2;SDS_P1;SDS_P2;PMS_P1;PMS_P2;Temp;Humidity;BMP_temperature;BMP_pressure;BME280_temperature;BME280_humidity;BME280_pressure;Samples;Min_cycle;Max_cycle;Signal;HPM_P1;HPM_P2
2023/06/06 00:01:21;;;;;;;4.88;3.50;;;;;;;11.60;81.66;150206.88;5064839;28;20303;-65
2023/06/06 00:03:48;;;;;;;7.40;3.83;;;;;;;11.60;82.17;150205.56;5064920;28;20025;-64
2023/06/06 00:06:20;;;;;;;6.32;3.47;;;;;;;11.63;82.51;150214.56;5064880;28;20059;-65
2023/06/06 00:08:48;;;;;;;7.90;3.78;;;;;;;11.54;82.69;150192.75;5064960;28;20075;-66
2023/06/06 00:11:13;;;;;;;5.93;3.83;;;;;;;11.57;82.54;150200.44;5064820;28;20029;-65
2023/06/06 00:13:40;;;;;;;4.25;3.70;;;;;;;11.68;82.73;150227.38;5064264;28;20090;-65
2023/06/06 00:16:06;;;;;;;4.00;3.30;;;;;;;11.69;81.59;150229.97;5064626;28;20029;-65
2023/06/06 00:18:32;;;;;;;5.28;3.38;;;;;;;11.67;81.36;150224.84;5064793;28;20032;-65
2023/06/06 00:20:58;;;;;;;6.60;3.78;;;;;;;11.67;81.86;150223.53;5064716;28;20290;-66
2023/06/06 00:23:24;;;;;;;5.65;3.80;;;;;;;11.66;82.25;150221.00;5064466;28;20032;-66
2023/06/06 00:25:54;;;;;;;5.78;4.05;;;;;;;11.72;82.81;150237.66;5064578;28;20084;-66
2023/06/06 00:28:20;;;;;;;9.20;4.40;;;;;;;11.77;81.55;150247.94;5064527;28;20229;-66
2023/06/06 00:30:46;;;;;;;8.32;3.53;;;;;;;11.73;80.29;150238.97;5064597;28;20028;-66
2023/06/06 00:33:11;;;;;;;6.85;4.07;;;;;;;11.74;80.87;150241.50;5050693;28;20042;-66
2023/06/06 00:35:37;;;;;;;9.57;3.97;;;;;;;11.75;82.22;150244.09;5056562;28;20025;-65
2023/06/06 00:38:03;;;;;;;5.63;3.95;;;;;;;11.82;82.41;150260.78;5064357;28;20024;-64
2023/06/06 00:40:28;;;;;;;7.93;3.90;;;;;;;11.82;83.49;150260.78;5064320;28;20314;-64
2023/06/06 00:42:54;;;;;;;7.93;3.85;;;;;;;11.83;82.70;150264.63;5064451;28;20040;-64
2023/06/06 00:45:20;;;;;;;6.88;4.22;;;;;;;11.85;83.13;150268.47;5064128;28;20029;-63
2023/06/06 00:47:46;;;;;;;6.28;3.78;;;;;;;11.87;82.62;150273.59;5064255;28;20104;-64
2023/06/06 00:50:12;;;;;;;6.00;4.07;;;;;;;11.88;83.60;150277.44;5064200;28;20341;-64
2023/06/06 00:52:46;;;;;;;6.60;3.65;;;;;;;11.90;83.27;150281.34;5063813;28;20036;-64
2023/06/06 00:55:14;;;;;;;6.85;3.95;;;;;;;11.91;82.96;150285.19;5064109;28;20032;-63
2023/06/06 00:57:43;;;;;;;7.35;3.58;;;;;;;11.94;82.95;150290.34;5062632;28;20036;-65
2023/06/06 01:00:10;;;;;;;7.18;3.78;;;;;;;11.96;83.08;150296.78;5063484;28;20028;-64
2023/06/06 01:02:37;;;;;;;7.35;3.97;;;;;;;11.95;82.50;150292.91;5062692;28;20020;-64
2023/06/06 01:05:09;;;;;;;6.30;3.63;;;;;;;11.95;82.13;150294.19;5063698;28;20028;-65
2023/06/06 01:07:35;;;;;;;7.00;3.50;;;;;;;11.97;81.92;150299.34;5063592;28;20033;-65
2023/06/06 01:10:07;;;;;;;6.30;4.18;;;;;;;11.97;82.62;150299.34;5063757;28;20035;-66
2023/06/06 01:12:35;;;;;;;6.97;3.60;;;;;;;11.97;80.87;150298.03;5043666;28;20052;-66
2023/06/06 01:15:09;;;;;;;4.75;3.42;;;;;;;12.02;79.92;150310.88;5060031;28;20044;-66
2023/06/06 01:17:36;;;;;;;6.90;3.67;;;;;;;12.02;81.08;150312.16;5063269;28;20028;-66
2023/06/06 01:20:06;;;;;;;6.03;3.50;;;;;;;11.99;81.53;150303.19;5063677;28;20040;-66
2023/06/06 01:22:33;;;;;;;4.70;3.38;;;;;;;12.07;80.92;150323.69;5063577;28;20321;-64
2023/06/06 01:24:59;;;;;;;5.65;3.00;;;;;;;12.07;80.14;150323.69;5063476;28;20218;-64
2023/06/06 01:27:26;;;;;;;4.68;3.13;;;;;;;12.07;78.52;150325.00;5063269;28;20096;-65
2023/06/06 01:29:52;;;;;;;5.40;3.33;;;;;;;12.08;78.30;150326.28;5063390;28;20027;-65
2023/06/06 01:32:33;;;;;;;4.20;3.40;;;;;;;12.07;78.75;150325.00;5063322;28;20251;-65
2023/06/06 01:35:12;;;;;;;5.30;3.63;;;;;;;12.00;78.61;150305.72;5063191;28;20025;-65
2023/06/06 01:37:45;;;;;;;4.78;3.30;;;;;;;12.09;79.99;150330.13;5062882;28;20217;-65
2023/06/06 01:40:13;;;;;;;4.63;3.28;;;;;;;12.13;78.87;150339.13;5063086;28;20025;-65
2023/06/06 01:42:44;;;;;;;6.10;3.60;;;;;;;12.03;79.73;150314.75;5063131;28;20041;-64
2023/06/06 01:45:11;;;;;;;10.10;5.68;;;;;;;12.16;80.21;150345.56;5062852;28;20025;-64
2023/06/06 01:47:38;;;;;;;6.28;4.80;;;;;;;12.18;80.60;150351.94;5062818;28;20021;-65
2023/06/06 01:50:07;;;;;;;5.40;2.92;;;;;;;12.16;77.35;150346.84;5062908;28;20310;-66
2023/06/06 01:52:37;;;;;;;4.88;3.20;;;;;;;12.22;78.42;150362.22;5061455;28;20039;-65
2023/06/06 01:55:04;;;;;;;4.60;2.90;;;;;;;12.21;78.86;150358.38;5061736;28;20082;-68
2023/06/06 01:57:30;;;;;;;5.68;2.58;;;;;;;12.22;78.19;150360.97;5025108;28;20341;-65
2023/06/06 01:59:55;;;;;;;5.38;2.67;;;;;;;12.24;77.74;150367.38;5058037;28;20036;-65
2023/06/06 02:02:21;;;;;;;4.65;2.80;;;;;;;12.29;77.43;150377.66;5061293;28;20044;-65
2023/06/06 02:04:48;;;;;;;3.78;2.55;;;;;;;12.26;78.04;150372.50;5062747;28;20048;-65
2023/06/06 02:07:15;;;;;;;3.28;2.92;;;;;;;12.29;77.37;150377.66;5062589;28;20049;-66
2023/06/06 02:09:42;;;;;;;3.25;2.95;;;;;;;12.32;76.64;150385.38;5062722;28;20033;-64
2023/06/06 02:12:08;;;;;;;3.10;2.63;;;;;;;12.34;77.90;150390.47;5063307;28;20036;-64
2023/06/06 02:14:34;;;;;;;4.80;3.05;;;;;;;12.38;78.24;150402.03;5066699;28;20033;-63
2023/06/06 02:17:00;;;;;;;4.20;2.88;;;;;;;12.37;77.68;150398.19;5062676;28;20047;-64
2023/06/06 02:19:27;;;;;;;4.22;2.67;;;;;;;12.43;77.02;150414.88;5049301;28;20261;-65
2023/06/06 02:21:52;;;;;;;7.13;2.90;;;;;;;12.44;77.44;150416.16;5067241;28;20313;-65
2023/06/06 02:24:18;;;;;;;4.45;2.40;;;;;;;12.48;75.88;150426.44;5066871;28;20056;-63
2023/06/06 02:26:44;;;;;;;3.95;2.97;;;;;;;12.52;76.63;150435.44;5066802;28;20056;-63
2023/06/06 02:29:10;;;;;;;5.72;2.85;;;;;;;12.51;75.33;150434.19;5066677;28;20025;-64
2023/06/06 02:31:36;;;;;;;2.85;2.42;;;;;;;12.56;75.00;150447.00;5066569;28;20029;-64
2023/06/06 02:34:02;;;;;;;3.65;2.55;;;;;;;12.55;76.65;150444.41;5066346;28;20213;-66
2023/06/06 02:36:30;;;;;;;3.38;2.28;;;;;;;12.58;76.08;150450.84;5066494;28;20025;-66
2023/06/06 02:38:57;;;;;;;7.38;2.78;;;;;;;12.65;76.25;150467.56;5066320;28;20029;-66
2023/06/06 02:41:23;;;;;;;4.55;2.80;;;;;;;12.66;75.55;150470.13;5065766;28;20148;-65
2023/06/06 02:43:49;;;;;;;3.13;2.55;;;;;;;12.65;75.86;150468.81;5066439;28;20039;-65
2023/06/06 02:46:15;;;;;;;3.28;2.60;;;;;;;12.64;76.23;150466.28;5066395;28;20091;-65
2023/06/06 02:48:45;;;;;;;4.10;2.55;;;;;;;12.69;75.38;150479.09;5066252;28;20071;-65
2023/06/06 02:51:11;;;;;;;8.35;2.63;;;;;;;12.55;75.36;150443.16;5060258;28;20286;-66
2023/06/06 02:53:40;;;;;;;3.78;2.60;;;;;;;12.80;75.31;150506.09;5059332;28;20120;-65
2023/06/06 02:56:06;;;;;;;3.08;2.50;;;;;;;12.86;75.01;150521.50;5066212;28;20021;-64
2023/06/06 02:58:32;;;;;;;4.53;2.88;;;;;;;12.88;75.06;150526.66;5066063;28;20252;-64
2023/06/06 03:01:00;;;;;;;4.03;2.55;;;;;;;12.90;74.65;150531.78;5066086;28;20039;-64
2023/06/06 03:03:26;;;;;;;4.70;2.47;;;;;;;12.93;74.76;150538.22;5048070;28;20232;-64
2023/06/06 03:05:53;;;;;;;2.47;2.28;;;;;;;12.95;75.41;150544.66;5065729;28;20045;-64
2023/06/06 03:08:19;;;;;;;5.47;2.55;;;;;;;13.02;74.22;150560.03;5064903;28;20060;-65
2023/06/06 03:10:49;;;;;;;5.63;2.13;;;;;;;13.07;73.48;150574.19;5064572;28;20028;-65
2023/06/06 03:13:14;;;;;;;5.78;2.17;;;;;;;13.08;73.66;150576.75;5064463;28;20025;-64
2023/06/06 03:15:41;;;;;;;4.15;2.10;;;;;;;13.15;73.64;150593.44;5064343;28;20025;-63
2023/06/06 03:18:09;;;;;;;5.22;2.55;;;;;;;13.18;72.61;150599.88;5060752;28;20049;-64
2023/06/06 03:20:39;;;;;;;4.13;2.30;;;;;;;13.08;73.51;150576.75;5055902;28;20286;-64
2023/06/06 03:23:06;;;;;;;5.07;2.60;;;;;;;13.24;72.83;150615.28;5064591;28;20041;-64
2023/06/06 03:25:33;;;;;;;4.55;2.45;;;;;;;13.26;73.27;150620.44;5064327;28;20037;-65
2023/06/06 03:28:00;;;;;;;4.13;2.42;;;;;;;13.29;73.72;150629.41;5065016;28;20175;-67
2023/06/06 03:30:25;;;;;;;3.20;2.20;;;;;;;13.36;73.72;150644.91;5064414;28;20187;-66
2023/06/06 03:32:51;;;;;;;2.42;1.80;;;;;;;13.38;73.62;150650.03;5064320;28;20059;-66
2023/06/06 03:35:18;;;;;;;4.35;2.10;;;;;;;13.47;72.53;150673.19;5064313;28;20025;-66
2023/06/06 03:37:44;;;;;;;2.85;2.10;;;;;;;13.52;72.78;150686.00;5064093;28;20078;-66
2023/06/06 03:40:12;;;;;;;5.35;2.17;;;;;;;13.48;72.39;150674.47;5064401;28;20025;-67
2023/06/06 03:42:38;;;;;;;8.32;2.72;;;;;;;13.60;71.69;150705.31;5044587;28;20093;-65
2023/06/06 03:45:05;;;;;;;3.70;2.30;;;;;;;13.67;70.88;150723.31;5059527;28;20036;-65
2023/06/06 03:47:31;;;;;;;2.80;2.08;;;;;;;13.72;70.42;150736.13;5064137;28;20036;-64
2023/06/06 03:49:56;;;;;;;3.67;2.03;;;;;;;13.83;70.12;150763.16;5064170;28;20032;-66
2023/06/06 03:52:23;;;;;;;4.53;2.60;;;;;;;13.94;69.28;150791.44;5064084;28;20025;-65
2023/06/06 03:54:48;;;;;;;2.95;2.17;;;;;;;13.98;69.08;150800.47;5063590;28;20029;-64
2023/06/06 03:57:14;;;;;;;2.80;1.88;;;;;;;14.03;68.96;150813.28;5053172;28;20079;-66
2023/06/06 03:59:41;;;;;;;3.15;2.10;;;;;;;14.05;68.67;150817.16;5055811;28;20029;-65
2023/06/06 04:02:07;;;;;;;5.15;2.30;;;;;;;14.17;68.08;150848.03;5062540;28;20230;-65
2023/06/06 04:04:33;;;;;;;6.82;2.33;;;;;;;14.25;68.76;150867.28;5063751;28;20036;-65
2023/06/06 04:06:59;;;;;;;3.95;2.15;;;;;;;14.24;68.82;150864.75;5019178;28;1306139;-65
2023/06/06 04:09:24;;;;;;;2.38;1.95;;;;;;;14.20;68.71;150855.72;5057958;28;20033;-66
2023/06/06 04:11:50;;;;;;;3.75;1.83;;;;;;;14.26;66.76;150869.88;5060920;28;20183;-67
2023/06/06 04:14:16;;;;;;;5.30;2.35;;;;;;;14.28;68.21;150876.31;5064821;28;20345;-65
2023/06/06 04:16:41;;;;;;;2.63;2.17;;;;;;;14.25;67.59;150868.59;5064382;28;20199;-65
2023/06/06 04:19:07;;;;;;;9.35;2.38;;;;;;;14.24;67.47;150866.03;5064819;28;20032;-63
2023/06/06 04:21:33;;;;;;;4.93;2.40;;;;;;;14.31;67.77;150882.75;5064451;28;20020;-64
2023/06/06 04:24:00;;;;;;;3.13;2.35;;;;;;;14.27;67.08;150872.47;5064512;28;20030;-63
2023/06/06 04:26:31;;;;;;;4.47;2.22;;;;;;;14.45;68.10;150917.44;5064440;28;20027;-63
2023/06/06 04:29:00;;;;;;;6.67;2.70;;;;;;;14.48;67.57;150925.19;5064634;28;20052;-63
2023/06/06 04:31:29;;;;;;;5.57;2.22;;;;;;;14.53;66.99;150938.03;5064083;28;20040;-63
2023/06/06 04:33:57;;;;;;;3.80;2.20;;;;;;;14.60;66.59;150954.78;5064321;28;20092;-62
2023/06/06 04:36:26;;;;;;;2.83;2.45;;;;;;;14.62;66.57;150961.25;5063443;28;20025;-63
2023/06/06 04:39:00;;;;;;;3.25;1.92;;;;;;;14.71;65.14;150983.13;5064422;28;20079;-64
2023/06/06 04:41:31;;;;;;;2.78;2.05;;;;;;;14.76;65.97;150995.97;5063671;28;20298;-63
2023/06/06 04:44:03;;;;;;;3.15;2.00;;;;;;;14.83;64.99;151012.69;5064350;28;20351;-63
2023/06/06 04:46:29;;;;;;;4.35;2.20;;;;;;;14.78;63.50;151001.13;5064149;28;20071;-66
2023/06/06 04:48:56;;;;;;;4.85;2.15;;;;;;;14.99;63.83;151052.56;5064182;28;20033;-64
2023/06/06 04:51:29;;;;;;;3.30;2.10;;;;;;;15.04;63.51;151064.19;5062544;28;20039;-64
2023/06/06 04:53:57;;;;;;;4.38;2.55;;;;;;;15.10;63.29;151079.63;5054451;28;20032;-64
2023/06/06 04:56:24;;;;;;;4.95;2.10;;;;;;;15.13;64.22;151088.59;5052782;28;20021;-64
2023/06/06 04:58:52;;;;;;;2.45;2.05;;;;;;;15.27;63.14;151123.34;5057927;28;20032;-64
2023/06/06 05:01:18;;;;;;;3.42;1.77;;;;;;;15.30;62.49;151131.06;5062430;28;20064;-64
2023/06/06 05:03:44;;;;;;;2.95;1.70;;;;;;;15.42;61.90;151159.38;5062662;28;20237;-65
2023/06/06 05:06:10;;;;;;;2.83;1.80;;;;;;;15.48;62.24;151174.88;5062581;28;20037;-61
2023/06/06 05:08:44;;;;;;;3.35;2.30;;;;;;;15.51;60.56;151182.56;5063712;28;20033;-62
2023/06/06 05:11:13;;;;;;;3.75;1.83;;;;;;;15.70;61.11;151231.50;5063777;28;20226;-62
2023/06/06 05:13:39;;;;;;;3.78;1.70;;;;;;;15.88;60.38;151276.59;5063164;28;20037;-62
2023/06/06 05:16:07;;;;;;;3.60;1.65;;;;;;;16.29;59.30;151378.34;5063427;28;20032;-62
2023/06/06 05:18:33;;;;;;;2.38;1.70;;;;;;;16.49;59.18;151427.25;5063558;28;20043;-63
2023/06/06 05:21:02;;;;;;;2.97;1.52;;;;;;;16.50;56.80;151429.81;5063836;28;20286;-64
2023/06/06 05:23:31;;;;;;;6.10;2.05;;;;;;;16.62;55.92;151459.50;5062265;28;20095;-62
2023/06/06 05:25:58;;;;;;;2.10;1.90;;;;;;;16.66;57.78;151469.75;5063427;28;20043;-62
2023/06/06 05:28:24;;;;;;;2.78;1.92;;;;;;;16.54;57.66;151440.13;5063256;28;20025;-62
2023/06/06 05:30:56;;;;;;;2.08;1.73;;;;;;;16.49;57.64;151428.56;5063493;28;20025;-62
2023/06/06 05:33:22;;;;;;;4.00;1.77;;;;;;;16.45;58.53;151418.25;5063307;28;20055;-63
2023/06/06 05:35:47;;;;;;;2.97;1.85;;;;;;;16.11;54.16;151331.97;5063064;28;20086;-63
2023/06/06 05:38:18;;;;;;;4.63;1.73;;;;;;;16.11;54.30;151331.97;5063315;28;20028;-63
2023/06/06 05:40:43;;;;;;;3.30;1.85;;;;;;;16.37;55.69;151397.63;5061860;28;20036;-63
2023/06/06 05:43:09;;;;;;;3.03;1.63;;;;;;;16.40;54.46;151405.34;5062204;28;20075;-63
2023/06/06 05:45:35;;;;;;;2.15;1.67;;;;;;;16.55;54.52;151442.72;5062624;28;20321;-64
2023/06/06 05:48:00;;;;;;;2.40;1.77;;;;;;;16.41;54.47;151407.94;5062929;28;20033;-63
2023/06/06 05:50:26;;;;;;;5.63;2.13;;;;;;;16.39;54.66;151404.09;5063300;28;20029;-63
2023/06/06 05:52:51;;;;;;;5.28;1.75;;;;;;;16.56;55.29;151445.31;5062617;28;20289;-63
2023/06/06 05:55:31;;;;;;;3.50;1.90;;;;;;;16.56;55.30;151446.59;5063052;28;20044;-63
2023/06/06 05:57:58;;;;;;;5.28;1.95;;;;;;;16.75;54.36;151492.97;5061463;28;20025;-64
2023/06/06 06:00:25;;;;;;;5.00;1.90;;;;;;;16.47;54.44;151422.09;5062916;28;20029;-63
2023/06/06 06:02:52;;;;;;;4.40;2.00;;;;;;;16.55;54.90;151444.00;5062342;28;20025;-64
2023/06/06 06:05:19;;;;;;;3.83;1.98;;;;;;;16.34;54.66;151391.19;5062516;28;20094;-64
2023/06/06 06:07:47;;;;;;;7.03;2.72;;;;;;;16.62;57.17;151460.75;5060963;28;20338;-62
2023/06/06 06:10:16;;;;;;;5.68;1.77;;;;;;;16.70;54.29;151480.06;5062648;28;20028;-62
2023/06/06 06:12:44;;;;;;;2.72;1.70;;;;;;;16.78;53.27;151499.41;5062162;28;20357;-64
2023/06/06 06:15:11;;;;;;;5.15;1.83;;;;;;;16.89;53.94;151529.09;5062868;28;20028;-63
2023/06/06 06:17:36;;;;;;;3.45;1.88;;;;;;;16.63;53.08;151463.34;5062685;28;20190;-63
2023/06/06 06:20:06;;;;;;;2.42;1.67;;;;;;;16.75;52.51;151492.97;5062623;28;20088;-62
2023/06/06 06:22:32;;;;;;;2.20;1.77;;;;;;;16.73;52.61;151487.78;5061282;28;20191;-64
2023/06/06 06:24:58;;;;;;;4.07;2.03;;;;;;;16.86;51.72;151520.00;5063025;28;20036;-63
2023/06/06 06:27:24;;;;;;;2.75;1.95;;;;;;;16.96;52.45;151545.84;5062996;28;20043;-64
2023/06/06 06:29:50;;;;;;;3.20;2.30;;;;;;;17.04;53.22;151566.44;5062630;28;20040;-63
2023/06/06 06:32:17;;;;;;;4.30;2.05;;;;;;;17.13;53.04;151587.06;5062762;28;20025;-62
2023/06/06 06:34:43;;;;;;;3.08;1.67;;;;;;;17.14;52.58;151590.91;5062564;28;20128;-63
2023/06/06 06:37:09;;;;;;;3.53;1.60;;;;;;;17.19;53.52;151603.81;5062603;28;20032;-64
2023/06/06 06:39:34;;;;;;;3.05;1.88;;;;;;;17.25;53.67;151619.28;5062181;28;20036;-63
2023/06/06 06:42:00;;;;;;;3.25;1.90;;;;;;;17.34;52.89;151641.19;5057846;28;20029;-64
2023/06/06 06:44:26;;;;;;;2.95;1.50;;;;;;;17.01;49.61;151558.69;5062268;28;20232;-64
2023/06/06 06:46:51;;;;;;;1.70;1.50;;;;;;;17.24;49.73;151615.41;5061000;28;20060;-63
2023/06/06 06:49:17;;;;;;;2.08;1.52;;;;;;;17.36;50.63;151646.34;5062289;28;20029;-63
2023/06/06 06:51:43;;;;;;;3.20;1.55;;;;;;;17.35;49.67;151642.50;5061912;28;20033;-63
2023/06/06 06:54:12;;;;;;;2.85;1.70;;;;;;;17.39;49.80;151654.06;5062113;28;20033;-64
2023/06/06 06:56:41;;;;;;;2.70;1.67;;;;;;;17.51;49.74;151682.44;5062042;28;20057;-63
2023/06/06 06:59:08;;;;;;;2.10;1.70;;;;;;;17.42;50.16;151660.53;5064079;28;20298;-63
2023/06/06 07:01:37;;;;;;;3.28;1.80;;;;;;;17.56;50.39;151695.34;5066022;28;20028;-63
2023/06/06 07:04:05;;;;;;;2.33;1.58;;;;;;;17.56;50.51;151695.34;5066473;28;20025;-63
2023/06/06 07:06:33;;;;;;;1.60;1.50;;;;;;;17.68;49.17;151724.97;5065547;28;20082;-63
2023/06/06 07:08:58;;;;;;;2.83;1.60;;;;;;;17.68;49.84;151724.97;5065705;28;20198;-63
2023/06/06 07:11:24;;;;;;;1.65;1.55;;;;;;;17.54;49.15;151690.16;5065540;28;20032;-63
2023/06/06 07:13:49;;;;;;;3.83;1.90;;;;;;;17.58;47.56;151700.47;5065535;28;20063;-63
2023/06/06 07:16:16;;;;;;;4.68;1.70;;;;;;;17.72;50.17;151735.31;5065876;28;20020;-63
2023/06/06 07:18:41;;;;;;;2.20;1.48;;;;;;;17.79;48.46;151753.34;5064167;28;20082;-63
2023/06/06 07:21:07;;;;;;;3.90;1.63;;;;;;;17.92;47.39;151785.63;5065933;28;20043;-63
2023/06/06 07:23:33;;;;;;;5.53;1.70;;;;;;;18.03;47.16;151814.00;5065547;28;20072;-64
2023/06/06 07:25:59;;;;;;;1.67;1.50;;;;;;;18.13;48.38;151838.50;5065597;28;20032;-64
2023/06/06 07:28:25;;;;;;;3.20;2.00;;;;;;;18.06;48.84;151820.44;5065614;28;20088;-64
2023/06/06 07:30:51;;;;;;;3.25;1.58;;;;;;;17.99;45.93;151803.69;5065354;28;20044;-64
2023/06/06 07:33:17;;;;;;;2.85;1.90;;;;;;;18.12;47.88;151835.91;5065478;28;20306;-63
2023/06/06 07:35:43;;;;;;;3.58;1.80;;;;;;;18.21;46.16;151857.81;5065101;28;20033;-63
2023/06/06 07:38:09;;;;;;;2.65;1.65;;;;;;;18.31;46.08;151883.63;5064018;28;20257;-63
2023/06/06 07:40:35;;;;;;;2.28;1.60;;;;;;;18.37;46.04;151897.78;5063905;28;20045;-63
2023/06/06 07:43:00;;;;;;;3.45;1.73;;;;;;;18.36;45.92;151896.53;5064956;28;20032;-63
2023/06/06 07:45:26;;;;;;;5.93;1.83;;;;;;;17.82;44.90;151761.06;5064761;28;20049;-63
2023/06/06 07:47:52;;;;;;;3.30;1.58;;;;;;;17.79;45.29;151752.06;5064761;28;20028;-63
2023/06/06 07:50:17;;;;;;;1.83;1.50;;;;;;;18.12;46.14;151835.91;5064742;28;20336;-64
2023/06/06 07:52:44;;;;;;;1.80;1.50;;;;;;;18.06;46.33;151820.44;5064790;28;20052;-63
2023/06/06 07:55:13;;;;;;;2.67;1.88;;;;;;;18.35;45.91;151893.94;5065078;28;20060;-63
2023/06/06 07:57:40;;;;;;;3.05;1.70;;;;;;;18.26;46.68;151870.75;5064853;28;20029;-64
2023/06/06 08:00:10;;;;;;;2.42;1.70;;;;;;;18.52;43.54;151936.50;5065020;28;20075;-64
2023/06/06 08:02:37;;;;;;;3.38;1.95;;;;;;;18.62;45.22;151962.28;5064288;28;20036;-64
2023/06/06 08:05:04;;;;;;;5.28;2.08;;;;;;;18.84;44.78;152015.19;5064343;28;20131;-64
2023/06/06 08:07:30;;;;;;;3.22;1.70;;;;;;;18.84;45.24;152015.19;5064686;28;20079;-64
2023/06/06 08:09:55;;;;;;;2.80;2.05;;;;;;;18.76;45.88;151995.84;5060933;28;20254;-63
2023/06/06 08:12:21;;;;;;;4.38;1.42;;;;;;;18.66;47.37;151971.34;5043835;28;20025;-63
2023/06/06 08:14:46;;;;;;;5.78;1.90;;;;;;;18.83;47.37;152013.91;5064640;28;20321;-63
2023/06/06 08:17:12;;;;;;;4.65;1.90;;;;;;;18.71;43.84;151984.25;5064723;28;20033;-64
2023/06/06 08:19:38;;;;;;;2.20;1.77;;;;;;;18.73;42.69;151989.41;5063220;28;20024;-64
2023/06/06 08:22:04;;;;;;;4.10;1.73;;;;;;;18.73;43.48;151989.41;5064992;28;20053;-63
2023/06/06 08:24:30;;;;;;;3.53;1.90;;;;;;;18.64;44.12;151966.19;5064547;28;20039;-63
2023/06/06 08:26:56;;;;;;;4.13;2.03;;;;;;;18.57;45.69;151949.41;5064805;28;20033;-64
2023/06/06 08:29:22;;;;;;;4.57;2.05;;;;;;;18.48;45.99;151924.91;5064753;28;20040;-64
2023/06/06 08:31:48;;;;;;;3.90;1.85;;;;;;;18.77;45.30;151999.72;5064327;28;20033;-64
2023/06/06 08:34:13;;;;;;;6.00;2.88;;;;;;;18.72;45.04;151985.53;5064644;28;20091;-63
2023/06/06 08:36:39;;;;;;;2.65;1.77;;;;;;;18.74;42.89;151992.00;5064031;28;20028;-63
2023/06/06 08:39:07;;;;;;;2.75;1.88;;;;;;;18.63;42.89;151964.88;5059872;28;20033;-64
2023/06/06 08:41:34;;;;;;;4.03;2.22;;;;;;;18.63;42.22;151963.59;5062253;28;20029;-63
2023/06/06 08:44:04;;;;;;;3.25;2.00;;;;;;;18.67;41.74;151973.94;5064335;28;20084;-63
2023/06/06 08:46:33;;;;;;;3.90;1.98;;;;;;;19.12;43.21;152087.47;5064189;28;20074;-64
2023/06/06 08:49:07;;;;;;;3.40;2.00;;;;;;;19.28;43.34;152126.22;5062491;28;20039;-64
2023/06/06 08:51:34;;;;;;;3.53;1.80;;;;;;;19.45;41.96;152168.81;5062850;28;20037;-64
2023/06/06 08:54:00;;;;;;;3.13;2.08;;;;;;;19.61;42.66;152208.81;5063937;28;20028;-64
2023/06/06 08:56:27;;;;;;;2.20;1.80;;;;;;;19.38;43.00;152152.06;5063891;28;20033;-64
2023/06/06 08:58:53;;;;;;;5.28;2.30;;;;;;;18.92;41.03;152037.16;5063969;28;20029;-63
2023/06/06 09:01:22;;;;;;;3.85;2.00;;;;;;;18.76;41.09;151997.13;5063730;28;20044;-64
2023/06/06 09:03:53;;;;;;;5.63;2.20;;;;;;;19.04;40.72;152065.56;5063617;28;20033;-64
2023/06/06 09:06:20;;;;;;;2.63;2.10;;;;;;;19.26;41.63;152121.06;5063833;28;20044;-64
2023/06/06 09:08:47;;;;;;;3.13;2.42;;;;;;;19.53;42.18;152188.19;5063566;28;20079;-65
2023/06/06 09:11:14;;;;;;;4.63;2.03;;;;;;;19.76;42.37;152246.28;5063474;28;20363;-64
2023/06/06 09:13:42;;;;;;;4.03;2.30;;;;;;;19.55;39.36;152193.34;5063397;28;20213;-69
2023/06/06 09:16:08;;;;;;;5.45;2.20;;;;;;;19.91;40.36;152283.75;5060517;28;20047;-62
2023/06/06 09:18:35;;;;;;;3.83;2.15;;;;;;;20.06;40.26;152321.22;5061639;28;20029;-63
2023/06/06 09:21:04;;;;;;;3.47;1.90;;;;;;;19.77;37.01;152248.88;5060611;28;20020;-64
2023/06/06 09:23:31;;;;;;;2.95;2.10;;;;;;;19.71;38.69;152234.66;5060498;28;20066;-64
2023/06/06 09:25:57;;;;;;;5.70;2.38;;;;;;;19.70;40.82;152230.78;5062186;28;20029;-64
2023/06/06 09:28:39;;;;;;;4.07;2.38;;;;;;;19.56;41.01;152195.94;5063060;28;20024;-62
2023/06/06 09:31:25;;;;;;;3.35;2.00;;;;;;;19.59;39.50;152203.66;5062273;28;20128;-64
2023/06/06 09:33:55;;;;;;;2.28;2.05;;;;;;;19.76;39.96;152247.53;5044908;28;20032;-64
2023/06/06 09:36:27;;;;;;;3.03;2.20;;;;;;;19.99;38.49;152305.72;5059554;28;20035;-64
2023/06/06 09:38:52;;;;;;;;;;;;;;;19.95;38.31;152294.06;5063413;28;20028;-63
2023/06/06 09:41:19;;;;;;;3.72;2.03;;;;;;;19.90;39.07;152282.47;5063124;28;19905;-63
2023/06/06 09:43:45;;;;;;;2.70;2.20;;;;;;;19.78;40.14;152252.75;5062954;28;20040;-62
2023/06/06 09:46:15;;;;;;;3.38;2.05;;;;;;;19.65;39.52;152220.47;5062678;28;20032;-64
2023/06/06 09:48:41;;;;;;;6.15;2.30;;;;;;;19.73;40.82;152238.53;5063094;28;20123;-65
2023/06/06 09:51:11;;;;;;;4.65;2.17;;;;;;;19.13;37.84;152088.81;5058663;28;20087;-64
2023/06/06 09:53:36;;;;;;;3.78;2.28;;;;;;;19.42;39.00;152162.34;5050035;28;20264;-64
2023/06/06 09:56:04;;;;;;;3.08;2.05;;;;;;;19.74;39.03;152241.09;5061661;28;20021;-64
2023/06/06 09:58:32;;;;;;;2.60;2.10;;;;;;;20.00;38.63;152307.00;5062850;28;20107;-64
2023/06/06 10:00:59;;;;;;;3.67;2.13;;;;;;;20.03;40.22;152313.47;5062933;28;20032;-63
2023/06/06 10:03:26;;;;;;;5.32;2.45;;;;;;;20.23;39.75;152365.09;5058113;28;20040;-64
2023/06/06 10:05:52;;;;;;;2.67;1.92;;;;;;;20.37;39.87;152399.97;5061197;28;20056;-63
2023/06/06 10:08:19;;;;;;;4.75;2.22;;;;;;;20.17;39.19;152349.63;5060243;28;20090;-63
2023/06/06 10:10:46;;;;;;;2.22;2.03;;;;;;;19.94;39.44;152291.53;5057100;28;20025;-64
2023/06/06 10:13:13;;;;;;;4.70;2.40;;;;;;;20.06;39.35;152322.47;5062755;28;20071;-63
2023/06/06 10:15:40;;;;;;;2.40;1.83;;;;;;;20.09;38.78;152330.22;5062440;28;20112;-64
2023/06/06 10:18:07;;;;;;;3.88;2.17;;;;;;;20.10;40.08;152331.53;5062510;28;20029;-64
2023/06/06 10:20:34;;;;;;;4.45;2.13;;;;;;;20.04;39.09;152316.00;5062543;28;20326;-63
2023/06/06 10:23:01;;;;;;;5.35;2.38;;;;;;;19.97;40.02;152299.25;5062721;28;20032;-62
2023/06/06 10:25:27;;;;;;;2.63;2.08;;;;;;;19.86;40.99;152272.13;5063064;28;20086;-64
2023/06/06 10:28:06;;;;;;;5.32;2.28;;;;;;;19.76;40.66;152247.53;5062498;28;20186;-62
2023/06/06 10:30:41;;;;;;;3.05;1.98;;;;;;;19.79;40.91;152254.06;5061783;28;20044;-64
2023/06/06 10:33:42;;;;;;;3.53;2.03;;;;;;;19.65;40.33;152219.16;5062024;28;20037;-62
2023/06/06 10:36:13;;;;;;;2.90;2.45;;;;;;;19.75;40.77;152245.00;5065932;28;20309;-62
2023/06/06 10:38:39;;;;;;;8.00;2.53;;;;;;;19.86;40.93;152270.84;5065909;28;20020;-63
2023/06/06 10:41:18;;;;;;;4.60;1.92;;;;;;;19.98;39.10;152301.81;5066027;28;20070;-62
2023/06/06 10:43:47;;;;;;;4.13;1.95;;;;;;;20.03;39.91;152313.47;5064122;28;20032;-63
2023/06/06 10:46:12;;;;;;;2.15;1.90;;;;;;;20.04;39.15;152317.34;5065302;28;20048;-63
2023/06/06 10:48:42;;;;;;;2.13;1.98;;;;;;;20.00;39.68;152307.00;5065476;28;20025;-64
2023/06/06 10:51:23;;;;;;;4.20;2.50;;;;;;;19.89;40.07;152279.88;5065617;28;20037;-63
2023/06/06 10:54:14;;;;;;;4.50;2.35;;;;;;;19.82;39.59;152263.13;5063537;28;20066;-64
2023/06/06 10:56:50;;;;;;;2.38;1.77;;;;;;;19.83;40.57;152265.66;5064082;28;20035;-65
2023/06/06 10:59:16;;;;;;;2.15;1.92;;;;;;;19.81;41.22;152260.53;5063671;28;20082;-63
2023/06/06 11:01:45;;;;;;;3.00;2.10;;;;;;;19.87;41.51;152274.72;5065242;28;20009;-65
2023/06/06 11:04:21;;;;;;;3.75;2.10;;;;;;;19.81;41.87;152260.53;5064301;28;20406;-61
2023/06/06 11:06:51;;;;;;;3.42;2.13;;;;;;;19.75;41.10;152245.00;5065102;28;20045;-63
2023/06/06 11:09:22;;;;;;;3.22;2.22;;;;;;;19.78;41.99;152252.75;5062686;28;20069;-64
2023/06/06 11:11:50;;;;;;;2.58;2.20;;;;;;;19.72;41.32;152237.22;5065228;28;20074;-63
2023/06/06 11:14:21;;;;;;;2.75;1.83;;;;;;;19.79;42.77;152255.34;5065164;28;20120;-63
2023/06/06 11:16:46;;;;;;;2.50;2.05;;;;;;;19.92;41.61;152286.34;5080368;28;20171;-63
2023/06/06 11:19:19;;;;;;;3.20;2.42;;;;;;;19.76;41.69;152246.28;5065302;28;20040;-63
2023/06/06 11:21:46;;;;;;;3.80;2.15;;;;;;;19.92;41.96;152286.34;5065050;28;20052;-63
2023/06/06 11:24:13;;;;;;;5.00;2.35;;;;;;;20.00;40.77;152307.00;5061413;28;20039;-65
2023/06/06 11:26:41;;;;;;;2.45;2.10;;;;;;;20.06;41.22;152322.47;5064826;28;20021;-63